Time;durP1;ratioP1;P1;durP2;ratioP2;P2;SDS_P1;SDS_P2;PMS_P1;PMS_P2;Temp;Humidity;BMP_temperature;BMP_pressure;BME280_temperature;BME280_humidity;BME280_pressure;Samples;Min_cycle;Max_cycle;Signal;HPM_P1;HPM_P2
2021/06/19 00:02:07;;;;;;;3.63;2.38;;;21.50;99.90;;;;;;5053490;28;20713;-78
2021/06/19 00:04:34;;;;;;;3.00;2.73;;;21.40;99.90;;;;;;5053367;28;20403;-77
2021/06/19 00:07:02;;;;;;;7.25;2.55;;;21.40;99.90;;;;;;5053180;28;20246;-77
2021/06/19 00:09:29;;;;;;;3.63;2.60;;;21.30;99.90;;;;;;5053076;28;20195;-78
2021/06/19 00:11:56;;;;;;;5.00;3.57;;;21.20;99.90;;;;;;5053159;28;20282;-77
2021/06/19 00:14:23;;;;;;;5.17;2.80;;;21.20;99.90;;;;;;5053013;28;20227;-78
2021/06/19 00:16:51;;;;;;;4.70;2.87;;;21.10;99.90;;;;;;5049870;28;20234;-78
2021/06/19 00:19:19;;;;;;;3.37;2.90;;;21.00;99.90;;;;;;5052966;28;20721;-78
2021/06/19 00:21:46;;;;;;;5.63;2.90;;;20.90;99.90;;;;;;5053208;28;20277;-77
2021/06/19 00:24:18;;;;;;;3.47;2.70;;;20.80;99.90;;;;;;5053359;28;20196;-78
2021/06/19 00:26:46;;;;;;;8.90;3.40;;;20.80;99.90;;;;;;5052962;28;20275;-78
2021/06/19 00:29:13;;;;;;;3.27;3.00;;;20.70;99.90;;;;;;5052947;28;20249;-77
2021/06/19 00:31:40;;;;;;;5.63;3.40;;;20.70;99.90;;;;;;5052796;28;20322;-78
2021/06/19 00:34:08;;;;;;;5.40;3.10;;;20.60;99.90;;;;;;5052582;28;20280;-78
2021/06/19 00:36:35;;;;;;;3.30;3.00;;;20.60;99.90;;;;;;5052368;28;20278;-78
2021/06/19 00:39:02;;;;;;;3.03;2.73;;;20.50;99.90;;;;;;5053079;28;20304;-78
2021/06/19 00:41:29;;;;;;;3.50;3.17;;;20.50;99.90;;;;;;5053218;28;20273;-78
2021/06/19 00:43:56;;;;;;;3.40;3.10;;;20.70;99.90;;;;;;5052454;28;20310;-78
2021/06/19 00:46:23;;;;;;;2.83;2.60;;;20.60;99.90;;;;;;5053055;28;20282;-78
2021/06/19 00:48:50;;;;;;;8.53;3.00;;;20.70;99.90;;;;;;5052509;28;20752;-78
2021/06/19 00:51:18;;;;;;;4.33;2.87;;;20.80;99.90;;;;;;5052615;28;20220;-78
2021/06/19 00:53:45;;;;;;;2.90;2.60;;;20.80;99.90;;;;;;5052549;28;20624;-78
2021/06/19 00:56:12;;;;;;;5.10;3.00;;;20.80;99.90;;;;;;5052905;28;20196;-78
2021/06/19 00:58:39;;;;;;;3.30;2.63;;;20.80;99.90;;;;;;5052419;28;20196;-78
2021/06/19 01:01:06;;;;;;;3.40;3.10;;;20.70;99.90;;;;;;5052590;28;20208;-78
2021/06/19 01:03:33;;;;;;;4.20;2.93;;;20.60;99.90;;;;;;5052481;28;20275;-79
2021/06/19 01:06:00;;;;;;;4.73;2.90;;;20.50;99.90;;;;;;5051972;28;20244;-78
2021/06/19 01:08:29;;;;;;;3.77;2.73;;;20.40;99.90;;;;;;5052828;28;20286;-77
2021/06/19 01:10:56;;;;;;;3.30;3.00;;;20.30;99.90;;;;;;5052366;28;20212;-77
2021/06/19 01:13:23;;;;;;;4.10;3.37;;;20.20;99.90;;;;;;5052030;28;20661;-78
2021/06/19 01:15:50;;;;;;;5.60;2.97;;;20.20;99.90;;;;;;5052190;28;20232;-77
2021/06/19 01:18:17;;;;;;;3.47;3.13;;;20.10;99.90;;;;;;5049194;28;20290;-78
2021/06/19 01:20:43;;;;;;;3.77;2.87;;;20.00;99.90;;;;;;5052045;28;20219;-78
2021/06/19 01:23:10;;;;;;;3.43;2.83;;;20.00;99.90;;;;;;5052299;28;20196;-78
2021/06/19 01:25:38;;;;;;;4.77;3.20;;;20.00;99.90;;;;;;5052309;28;20553;-78
2021/06/19 01:28:10;;;;;;;2.97;2.70;;;20.00;99.90;;;;;;5052356;28;20203;-78
2021/06/19 01:30:38;;;;;;;3.10;2.80;;;19.80;99.90;;;;;;5052815;28;20223;-78
2021/06/19 01:33:05;;;;;;;3.57;3.10;;;19.80;99.90;;;;;;5051917;28;20278;-78
2021/06/19 01:35:32;;;;;;;4.80;2.87;;;19.80;99.90;;;;;;5052295;28;20192;-78
2021/06/19 01:38:00;;;;;;;7.87;3.23;;;19.80;99.90;;;;;;5052074;28;20282;-78
2021/06/19 01:40:29;;;;;;;3.53;3.23;;;19.70;99.90;;;;;;5052259;28;20611;-78
2021/06/19 01:42:58;;;;;;;4.53;3.00;;;19.60;99.90;;;;;;5052368;28;20215;-78
2021/06/19 01:45:27;;;;;;;3.40;3.10;;;19.50;99.90;;;;;;5052226;28;20223;-78
2021/06/19 01:47:55;;;;;;;5.83;3.40;;;19.50;99.90;;;;;;5055831;28;20280;-78
2021/06/19 01:50:23;;;;;;;6.93;3.67;;;19.50;99.90;;;;;;5055615;28;20291;-78
2021/06/19 01:52:51;;;;;;;4.07;3.67;;;19.50;99.90;;;;;;5056087;28;20307;-77
2021/06/19 01:55:19;;;;;;;6.00;3.97;;;19.40;99.90;;;;;;5055544;28;20311;-78
2021/06/19 01:57:46;;;;;;;5.27;3.90;;;19.20;99.90;;;;;;5055763;28;20220;-78
2021/06/19 02:00:19;;;;;;;5.30;4.60;;;19.20;99.90;;;;;;5053525;28;20208;-78
2021/06/19 02:02:46;;;;;;;4.90;4.43;;;19.20;99.90;;;;;;5055643;28;20204;-78
2021/06/19 02:05:15;;;;;;;5.47;4.57;;;19.20;99.90;;;;;;5055567;28;20281;-78
2021/06/19 02:07:47;;;;;;;6.00;4.27;;;19.20;99.90;;;;;;5055337;28;20669;-78
2021/06/19 02:10:14;;;;;;;6.33;5.33;;;19.20;99.90;;;;;;5055678;28;20203;-78
2021/06/19 02:12:41;;;;;;;5.10;4.60;;;19.20;99.90;;;;;;5055126;28;20615;-78
2021/06/19 02:15:09;;;;;;;5.43;4.10;;;19.10;99.90;;;;;;5055429;28;20219;-78
2021/06/19 02:17:37;;;;;;;4.83;4.00;;;19.20;99.90;;;;;;5052396;28;20220;-77
2021/06/19 02:20:06;;;;;;;4.87;3.93;;;19.20;99.90;;;;;;5055090;28;20283;-78
2021/06/19 02:22:34;;;;;;;4.73;3.27;;;19.10;99.90;;;;;;5055271;28;20278;-78
2021/06/19 02:25:01;;;;;;;4.17;3.70;;;19.00;99.90;;;;;;5055063;28;20250;-78
2021/06/19 02:27:28;;;;;;;5.37;3.47;;;19.00;99.90;;;;;;5055135;28;20283;-77
2021/06/19 02:29:54;;;;;;;5.17;3.97;;;19.00;99.90;;;;;;5055079;28;20231;-77
2021/06/19 02:32:21;;;;;;;4.03;3.60;;;19.00;99.90;;;;;;5055369;28;20212;-78
2021/06/19 02:34:50;;;;;;;4.57;4.10;;;19.00;99.90;;;;;;5055133;28;20255;-77
2021/06/19 02:37:17;;;;;;;5.03;4.53;;;18.90;99.90;;;;;;5054948;28;20646;-78
2021/06/19 02:39:44;;;;;;;5.03;4.53;;;18.90;99.90;;;;;;5055192;28;20283;-78
2021/06/19 02:42:11;;;;;;;6.47;4.03;;;19.00;99.90;;;;;;5054946;28;20196;-78
2021/06/19 02:44:38;;;;;;;6.80;3.97;;;18.90;99.90;;;;;;5055176;28;20283;-78
2021/06/19 02:47:05;;;;;;;5.37;4.43;;;19.00;99.90;;;;;;5055154;28;20209;-77
2021/06/19 02:49:32;;;;;;;6.00;5.00;;;19.20;99.90;;;;;;5054792;28;20224;-78
2021/06/19 02:52:00;;;;;;;6.73;5.73;;;19.40;99.90;;;;;;5054608;28;20243;-78
2021/06/19 02:54:27;;;;;;;8.07;6.47;;;19.40;99.90;;;;;;5054469;28;20542;-78
2021/06/19 02:56:54;;;;;;;8.47;6.60;;;19.30;99.90;;;;;;5054332;28;20192;-77
2021/06/19 02:59:21;;;;;;;7.60;6.17;;;19.40;99.90;;;;;;5053722;28;20653;-78
2021/06/19 03:01:48;;;;;;;5.80;5.17;;;19.30;99.90;;;;;;5054874;28;20284;-78
2021/06/19 03:04:15;;;;;;;6.20;5.60;;;19.20;99.90;;;;;;5054506;28;20196;-77
2021/06/19 03:06:42;;;;;;;6.33;5.70;;;19.00;99.90;;;;;;5054370;28;20652;-77
2021/06/19 03:09:11;;;;;;;7.97;6.30;;;19.00;99.90;;;;;;5054274;28;20224;-78
2021/06/19 03:11:38;;;;;;;9.67;6.23;;;18.80;99.90;;;;;;5054624;28;20192;-78
2021/06/19 03:14:05;;;;;;;7.87;6.07;;;18.70;99.90;;;;;;5054452;28;20303;-78
2021/06/19 03:16:33;;;;;;;8.17;7.27;;;18.70;99.90;;;;;;5048933;28;20201;-78
2021/06/19 03:19:00;;;;;;;9.50;7.83;;;18.70;99.90;;;;;;5054299;28;20227;-77
2021/06/19 03:21:27;;;;;;;8.73;7.50;;;18.70;99.90;;;;;;5054292;28;20292;-77
2021/06/19 03:23:53;;;;;;;9.87;8.27;;;18.60;99.90;;;;;;5054395;28;20223;-78
2021/06/19 03:26:22;;;;;;;12.77;9.10;;;18.50;99.90;;;;;;5053760;28;20748;-78
2021/06/19 03:28:49;;;;;;;10.97;9.40;;;18.50;99.90;;;;;;5054169;28;20283;-78
2021/06/19 03:31:16;;;;;;;11.83;9.83;;;18.40;99.90;;;;;;5053832;28;20295;-79
2021/06/19 03:33:42;;;;;;;13.57;10.07;;;18.30;99.90;;;;;;5054512;28;20203;-79
2021/06/19 03:36:09;;;;;;;12.80;10.10;;;18.20;99.90;;;;;;5054409;28;20250;-78
2021/06/19 03:38:36;;;;;;;17.17;10.60;;;18.20;99.90;;;;;;5054215;28;20605;-78
2021/06/19 03:41:03;;;;;;;13.40;10.80;;;18.30;99.90;;;;;;5054402;28;20287;-79
2021/06/19 03:43:31;;;;;;;13.50;11.70;;;18.30;99.90;;;;;;5053795;28;20550;-79
2021/06/19 03:45:58;;;;;;;13.93;11.20;;;18.30;99.90;;;;;;5054105;28;20283;-79
2021/06/19 03:48:25;;;;;;;14.10;11.63;;;18.30;99.90;;;;;;5054142;28;22094;-78
2021/06/19 03:50:52;;;;;;;13.77;11.87;;;18.30;99.90;;;;;;5054175;28;20213;-78
2021/06/19 03:53:19;;;;;;;14.53;11.83;;;18.40;99.90;;;;;;5053721;28;20254;-79
2021/06/19 03:55:46;;;;;;;14.40;11.93;;;18.40;99.90;;;;;;5053697;28;20216;-78
2021/06/19 03:58:13;;;;;;;16.50;11.53;;;18.60;99.90;;;;;;5054097;28;20235;-79
2021/06/19 04:00:41;;;;;;;14.03;11.83;;;18.60;99.90;;;;;;5053535;28;20228;-78
2021/06/19 04:03:08;;;;;;;15.17;12.03;;;18.70;99.90;;;;;;5053785;28;20228;-79
2021/06/19 04:05:35;;;;;;;13.10;11.73;;;18.80;99.90;;;;;;5053486;28;20298;-78
2021/06/19 04:08:02;;;;;;;14.10;12.53;;;18.90;99.90;;;;;;5053736;28;20234;-78
2021/06/19 04:10:29;;;;;;;15.33;12.20;;;18.90;99.90;;;;;;5053446;28;20196;-78
2021/06/19 04:12:56;;;;;;;15.17;12.03;;;18.90;99.90;;;;;;5053634;28;20203;-78
2021/06/19 04:15:23;;;;;;;15.40;11.23;;;18.80;99.90;;;;;;5053261;28;20566;-78
2021/06/19 04:17:51;;;;;;;12.50;11.20;;;18.90;99.90;;;;;;5048198;28;20192;-79
2021/06/19 04:20:19;;;;;;;12.53;11.17;;;18.90;99.90;;;;;;5054031;28;20192;-78
2021/06/19 04:22:46;;;;;;;13.17;10.37;;;18.80;99.90;;;;;;5053159;28;20709;-79
2021/06/19 04:25:15;;;;;;;12.27;10.53;;;18.90;99.90;;;;;;5053289;28;20235;-78
2021/06/19 04:27:45;;;;;;;12.50;11.13;;;19.00;99.90;;;;;;5053743;28;20286;-78
2021/06/19 04:30:14;;;;;;;13.17;10.07;;;19.10;99.90;;;;;;5053288;28;20219;-78
2021/06/19 04:32:42;;;;;;;11.23;10.03;;;19.10;99.90;;;;;;5053503;28;20287;-78
2021/06/19 04:35:13;;;;;;;10.07;8.93;;;19.20;99.90;;;;;;5053207;28;20220;-77
2021/06/19 04:37:41;;;;;;;9.57;8.50;;;19.20;99.90;;;;;;5053691;28;20204;-78
2021/06/19 04:40:13;;;;;;;12.17;8.70;;;19.20;99.90;;;;;;5052905;28;20283;-79
2021/06/19 04:42:44;;;;;;;9.20;8.17;;;19.20;99.90;;;;;;5052878;28;20617;-78
2021/06/19 04:45:14;;;;;;;12.03;7.97;;;19.30;99.90;;;;;;5052956;28;20200;-78
2021/06/19 04:47:41;;;;;;;9.40;8.40;;;19.50;99.90;;;;;;5053151;28;20279;-79
2021/06/19 04:50:11;;;;;;;10.67;8.70;;;19.60;99.90;;;;;;5052948;28;20204;-78
2021/06/19 04:52:41;;;;;;;10.07;8.20;;;19.70;99.90;;;;;;5053160;28;20295;-79
2021/06/19 04:55:11;;;;;;;13.87;8.60;;;19.70;99.90;;;;;;5052661;28;20216;-78
2021/06/19 04:57:39;;;;;;;8.93;8.00;;;19.70;99.90;;;;;;5053075;28;20199;-79
2021/06/19 05:00:07;;;;;;;9.93;8.63;;;19.70;99.90;;;;;;5052675;28;20196;-78
2021/06/19 05:02:34;;;;;;;11.43;8.50;;;19.60;99.90;;;;;;5053133;28;20279;-78
2021/06/19 05:05:01;;;;;;;12.17;8.63;;;19.50;99.90;;;;;;5052788;28;20253;-77
2021/06/19 05:07:29;;;;;;;10.00;8.40;;;19.50;99.90;;;;;;5052507;28;20227;-79
2021/06/19 05:09:56;;;;;;;9.43;8.07;;;19.40;99.90;;;;;;5052805;28;20224;-77
2021/06/19 05:12:23;;;;;;;13.17;8.00;;;19.40;99.90;;;;;;5052348;28;20286;-77
2021/06/19 05:14:50;;;;;;;10.83;8.67;;;19.60;99.90;;;;;;5052713;28;20238;-78
2021/06/19 05:17:17;;;;;;;13.37;9.93;;;19.60;99.90;;;;;;5047448;28;20222;-79
2021/06/19 05:19:44;;;;;;;11.50;10.23;;;19.60;99.90;;;;;;5052597;28;20291;-78
2021/06/19 05:22:11;;;;;;;11.80;10.43;;;19.50;99.90;;;;;;5055549;28;20675;-78
2021/06/19 05:24:39;;;;;;;17.90;12.93;;;19.50;99.90;;;;;;5056618;28;20666;-78
2021/06/19 05:27:06;;;;;;;13.70;12.13;;;19.50;99.90;;;;;;5056847;28;20290;-79
2021/06/19 05:29:33;;;;;;;13.97;12.60;;;19.40;99.90;;;;;;5056537;28;20223;-78
2021/06/19 05:32:00;;;;;;;19.63;15.67;;;19.40;99.90;;;;;;5056501;28;20603;-78
2021/06/19 05:34:28;;;;;;;18.23;16.23;;;19.30;99.90;;;;;;5056140;28;20196;-78
2021/06/19 05:36:55;;;;;;;19.10;17.07;;;19.30;99.90;;;;;;5056096;28;20660;-77
2021/06/19 05:39:22;;;;;;;22.27;18.23;;;19.30;99.90;;;;;;5056227;28;20287;-78
2021/06/19 05:41:50;;;;;;;20.03;15.77;;;19.20;99.90;;;;;;5055838;28;20231;-78
2021/06/19 05:44:17;;;;;;;16.87;14.83;;;19.20;99.90;;;;;;5055964;28;20287;-77
2021/06/19 05:46:44;;;;;;;16.63;14.77;;;19.20;99.90;;;;;;5055731;28;20287;-78
2021/06/19 05:49:11;;;;;;;14.73;13.17;;;19.40;99.90;;;;;;5056048;28;20685;-79
2021/06/19 05:51:38;;;;;;;14.67;13.03;;;19.60;99.90;;;;;;5055845;28;20196;-78
2021/06/19 05:54:05;;;;;;;16.43;10.73;;;19.90;99.90;;;;;;5056126;28;20562;-78
2021/06/19 05:56:32;;;;;;;11.00;9.90;;;20.20;99.90;;;;;;5055549;28;20303;-79
2021/06/19 05:59:01;;;;;;;10.13;9.03;;;20.40;99.90;;;;;;5055971;28;20283;-78
2021/06/19 06:01:30;;;;;;;8.70;7.80;;;20.50;99.90;;;;;;5056151;28;20223;-78
2021/06/19 06:03:59;;;;;;;8.57;7.27;;;20.70;99.90;;;;;;5056038;28;20228;-78
2021/06/19 06:06:27;;;;;;;7.17;6.47;;;20.80;99.90;;;;;;5055872;28;20283;-79
2021/06/19 06:08:53;;;;;;;8.70;7.50;;;20.90;99.90;;;;;;5055474;28;20232;-78
2021/06/19 06:11:21;;;;;;;8.33;7.47;;;21.10;99.90;;;;;;5055519;28;20224;-78
2021/06/19 06:13:48;;;;;;;8.70;7.90;;;21.00;99.90;;;;;;5055714;28;20202;-78
2021/06/19 06:16:16;;;;;;;8.40;7.33;;;21.10;99.90;;;;;;5048460;28;20224;-78
2021/06/19 06:18:43;;;;;;;8.13;7.33;;;21.00;99.90;;;;;;5041751;28;20294;-78
2021/06/19 06:21:10;;;;;;;7.43;6.70;;;20.90;99.90;;;;;;5041923;28;20723;-78
2021/06/19 06:23:37;;;;;;;7.43;6.27;;;20.80;99.90;;;;;;5053538;28;20197;-78
2021/06/19 06:26:04;;;;;;;6.87;5.60;;;20.70;99.90;;;;;;5053991;28;20272;-78
2021/06/19 06:28:31;;;;;;;5.83;4.90;;;20.60;99.90;;;;;;5052150;28;20719;-78
2021/06/19 06:30:58;;;;;;;5.90;5.30;;;20.70;99.90;;;;;;5053033;28;20296;-79
2021/06/19 06:33:26;;;;;;;6.80;5.30;;;20.60;99.90;;;;;;5053118;28;20650;-79
2021/06/19 06:35:55;;;;;;;5.70;4.63;;;20.80;99.90;;;;;;5046899;28;21332;-78
2021/06/19 06:38:24;;;;;;;5.70;5.03;;;20.80;99.90;;;;;;5052815;28;20206;-78
2021/06/19 06:40:51;;;;;;;5.87;5.27;;;21.00;99.90;;;;;;5052872;28;20227;-78
2021/06/19 06:43:18;;;;;;;6.57;5.30;;;20.80;99.90;;;;;;5043216;28;20226;-77
2021/06/19 06:45:45;;;;;;;6.67;5.13;;;20.80;99.90;;;;;;5044833;28;20698;-78
2021/06/19 06:48:12;;;;;;;6.77;5.37;;;20.70;99.90;;;;;;5054039;28;20284;-78
2021/06/19 06:50:41;;;;;;;6.33;5.00;;;20.90;99.90;;;;;;5055921;28;20613;-77
2021/06/19 06:53:08;;;;;;;7.00;5.00;;;21.00;99.90;;;;;;5057190;28;20239;-78
2021/06/19 06:55:35;;;;;;;7.23;5.37;;;21.30;99.90;;;;;;5056182;28;20258;-78
2021/06/19 06:58:02;;;;;;;6.53;5.33;;;21.60;99.90;;;;;;5055780;28;20283;-78
2021/06/19 07:00:29;;;;;;;7.10;5.40;;;21.90;99.90;;;;;;5047374;28;20197;-77
2021/06/19 07:02:56;;;;;;;5.20;4.70;;;22.10;99.90;;;;;;5045728;28;20248;-78
2021/06/19 07:05:23;;;;;;;6.95;5.40;;;22.30;99.90;;;;;;5049949;28;20196;-77
2021/06/19 07:07:51;;;;;;;5.68;5.18;;;22.40;99.90;;;;;;5043257;28;20283;-78
2021/06/19 07:10:18;;;;;;;5.10;4.60;;;22.50;99.90;;;;;;5041385;28;20275;-78
2021/06/19 07:12:45;;;;;;;5.28;4.75;;;22.60;99.90;;;;;;5045766;28;20224;-76
2021/06/19 07:15:14;;;;;;;5.50;4.97;;;22.50;99.90;;;;;;5050337;28;20208;-78
2021/06/19 07:17:42;;;;;;;5.80;5.30;;;22.50;99.90;;;;;;5051584;28;20245;-78
2021/06/19 07:20:11;;;;;;;8.15;5.03;;;22.20;99.90;;;;;;5051582;28;20217;-78
2021/06/19 07:22:38;;;;;;;5.47;4.50;;;22.20;99.90;;;;;;5051318;28;20188;-78
2021/06/19 07:25:08;;;;;;;8.18;5.10;;;22.20;99.90;;;;;;5051335;28;20283;-77
2021/06/19 07:27:36;;;;;;;7.40;5.20;;;22.20;99.90;;;;;;5051364;28;20283;-78
2021/06/19 07:30:03;;;;;;;6.38;5.45;;;22.30;99.90;;;;;;5050820;28;20569;-77
2021/06/19 07:32:30;;;;;;;6.00;5.47;;;22.30;99.90;;;;;;5041426;28;20193;-77
2021/06/19 07:34:57;;;;;;;7.40;5.40;;;22.20;99.90;;;;;;5047870;28;20198;-78
2021/06/19 07:37:24;;;;;;;6.63;5.93;;;22.20;99.90;;;;;;5047784;28;20200;-78
2021/06/19 07:39:53;;;;;;;6.68;5.88;;;22.20;99.90;;;;;;5055891;28;20542;-78
2021/06/19 07:42:21;;;;;;;7.70;5.68;;;22.20;99.90;;;;;;5044852;28;20201;-77
2021/06/19 07:44:48;;;;;;;6.28;5.45;;;22.30;99.90;;;;;;5043270;28;20602;-78
2021/06/19 07:47:15;;;;;;;5.93;5.20;;;22.60;99.90;;;;;;5058744;28;20223;-78
2021/06/19 07:49:42;;;;;;;7.78;5.75;;;22.90;99.90;;;;;;5055845;28;20227;-77
2021/06/19 07:52:09;;;;;;;5.90;5.30;;;23.10;99.90;;;;;;5065186;28;20278;-77
2021/06/19 07:54:37;;;;;;;6.10;5.40;;;23.30;99.90;;;;;;5058528;28;20306;-77
2021/06/19 07:57:05;;;;;;;7.90;5.80;;;23.30;99.90;;;;;;5039593;28;20582;-78
2021/06/19 07:59:34;;;;;;;7.63;5.43;;;23.10;99.90;;;;;;5048862;28;20661;-77
2021/06/19 08:02:01;;;;;;;6.53;5.53;;;23.00;99.90;;;;;;5047200;28;20196;-76
2021/06/19 08:04:28;;;;;;;7.72;5.93;;;22.80;99.90;;;;;;5030954;28;20654;-77
2021/06/19 08:06:55;;;;;;;8.13;7.18;;;22.80;99.90;;;;;;5050508;28;20224;-77
2021/06/19 08:09:23;;;;;;;10.73;7.88;;;22.70;99.90;;;;;;5039508;28;20276;-77
2021/06/19 08:11:50;;;;;;;11.75;8.68;;;22.50;99.90;;;;;;5056328;28;20631;-78
2021/06/19 08:14:17;;;;;;;8.73;7.47;;;22.50;99.90;;;;;;5043832;28;20185;-77
2021/06/19 08:16:49;;;;;;;29.23;13.63;;;22.30;99.90;;;;;;5040041;28;20307;-77
2021/06/19 08:19:16;;;;;;;12.88;8.82;;;22.40;99.90;;;;;;5040011;28;20662;-77
2021/06/19 08:21:43;;;;;;;11.75;9.20;;;22.40;99.90;;;;;;5048100;28;20271;-77
2021/06/19 08:24:10;;;;;;;11.15;9.73;;;22.50;99.90;;;;;;5037096;28;20186;-77
2021/06/19 08:26:37;;;;;;;12.38;10.43;;;22.60;99.90;;;;;;5044803;28;20193;-77
2021/06/19 08:29:04;;;;;;;14.32;10.27;;;22.80;99.90;;;;;;5046609;28;20191;-77
2021/06/19 08:31:34;;;;;;;13.95;11.50;;;22.90;99.90;;;;;;5047633;28;20214;-77
2021/06/19 08:34:03;;;;;;;16.75;11.55;;;23.00;99.90;;;;;;5047641;28;20196;-77
2021/06/19 08:36:30;;;;;;;16.35;13.32;;;23.20;99.90;;;;;;5042021;28;20743;-76
2021/06/19 08:38:57;;;;;;;16.15;14.15;;;23.30;99.90;;;;;;5038892;28;20220;-76
2021/06/19 08:41:24;;;;;;;19.42;14.55;;;23.40;99.90;;;;;;5037937;28;20673;-76
2021/06/19 08:43:51;;;;;;;19.13;14.85;;;23.30;99.90;;;;;;5043391;28;20214;-77
2021/06/19 08:46:20;;;;;;;18.05;14.15;;;23.10;99.90;;;;;;5046578;28;20185;-78
2021/06/19 08:48:50;;;;;;;16.15;14.43;;;23.30;99.90;;;;;;5036091;28;20239;-77
2021/06/19 08:51:19;;;;;;;15.75;14.00;;;23.30;99.90;;;;;;5045961;28;20619;-77
2021/06/19 08:53:48;;;;;;;16.30;13.82;;;23.40;99.90;;;;;;5042702;28;20200;-77
2021/06/19 08:56:15;;;;;;;14.55;12.40;;;23.40;99.90;;;;;;5038923;28;20228;-78
2021/06/19 08:58:42;;;;;;;13.45;12.02;;;23.50;99.90;;;;;;5044658;28;20713;-77
2021/06/19 09:01:09;;;;;;;16.40;12.60;;;23.70;99.90;;;;;;5036140;28;20211;-76
2021/06/19 09:03:36;;;;;;;13.77;12.35;;;23.70;99.90;;;;;;5029699;28;20240;-76
2021/06/19 09:06:26;;;;;;;13.70;11.75;;;24.10;99.90;;;;;;5041744;28;20307;-77
2021/06/19 09:09:01;;;;;;;13.00;11.60;;;25.00;99.90;;;;;;5034994;28;20181;-77
2021/06/19 09:11:30;;;;;;;13.55;10.27;;;25.50;99.90;;;;;;5042819;28;20192;-76
2021/06/19 09:14:00;;;;;;;14.02;11.27;;;25.70;99.90;;;;;;5038024;28;20617;-77
2021/06/19 09:16:27;;;;;;;16.58;13.35;;;25.90;99.90;;;;;;5044880;28;20240;-76
2021/06/19 09:18:54;;;;;;;15.02;11.70;;;25.60;99.90;;;;;;5028341;28;20224;-77
2021/06/19 09:21:28;;;;;;;13.73;12.32;;;25.20;99.90;;;;;;5045650;28;20212;-78
2021/06/19 09:23:55;;;;;;;13.77;11.65;;;24.70;99.90;;;;;;5047947;28;20197;-77
2021/06/19 09:26:23;;;;;;;14.93;12.40;;;24.50;99.90;;;;;;5038104;28;20280;-77
2021/06/19 09:29:18;;;;;;;14.95;12.68;;;24.30;99.90;;;;;;5039766;28;20243;-80
2021/06/19 09:31:47;;;;;;;16.30;12.35;;;24.10;99.90;;;;;;5055077;28;20278;-79
2021/06/19 09:34:16;;;;;;;16.25;13.20;;;23.90;99.90;;;;;;5041139;28;20192;-79
2021/06/19 09:36:51;;;;;;;18.52;13.25;;;23.90;99.90;;;;;;5053914;28;20234;-77
2021/06/19 09:39:19;;;;;;;17.70;12.18;;;23.90;99.90;;;;;;5041580;28;20224;-78
2021/06/19 09:41:48;;;;;;;16.52;13.52;;;23.70;99.90;;;;;;5045185;28;20200;-77
2021/06/19 09:44:16;;;;;;;15.52;12.35;;;23.70;99.90;;;;;;5031100;28;20211;-78
2021/06/19 09:46:56;;;;;;;15.80;13.02;;;23.70;99.90;;;;;;5050052;28;20646;-77
2021/06/19 09:49:30;;;;;;;13.18;11.43;;;23.70;99.90;;;;;;5044392;28;20239;-78
2021/06/19 09:51:59;;;;;;;13.32;11.15;;;23.50;99.90;;;;;;5042549;28;20206;-78
2021/06/19 09:54:26;;;;;;;15.85;11.98;;;23.40;99.90;;;;;;5049002;28;20203;-78
2021/06/19 09:56:54;;;;;;;13.48;11.30;;;23.10;99.90;;;;;;5048267;28;20311;-78
2021/06/19 09:59:27;;;;;;;16.60;12.38;;;22.80;99.90;;;;;;5048248;28;20176;-77
2021/06/19 10:01:54;;;;;;;13.13;11.50;;;22.90;99.90;;;;;;5040035;28;20241;-78
2021/06/19 10:04:24;;;;;;;14.85;11.45;;;22.80;99.90;;;;;;5051053;28;20211;-78
2021/06/19 10:06:52;;;;;;;16.23;11.60;;;22.80;99.90;;;;;;5047702;28;20527;-78
2021/06/19 10:09:21;;;;;;;15.00;11.50;;;23.20;99.90;;;;;;5052512;28;20228;-77
2021/06/19 10:11:49;;;;;;;12.63;11.32;;;23.60;99.90;;;;;;5050067;28;20204;-78
2021/06/19 10:14:18;;;;;;;14.70;11.70;;;23.70;99.90;;;;;;5046672;28;20223;-78
2021/06/19 10:16:47;;;;;;;14.98;12.13;;;24.10;99.90;;;;;;5045081;28;20630;-77
2021/06/19 10:19:18;;;;;;;15.45;11.63;;;24.30;99.90;;;;;;5046849;28;20676;-77
2021/06/19 10:21:45;;;;;;;12.63;11.25;;;24.70;99.90;;;;;;5049278;28;20538;-76
2021/06/19 10:24:13;;;;;;;12.07;10.80;;;25.20;99.90;;;;;;5046312;28;20193;-78
2021/06/19 10:26:42;;;;;;;11.45;9.40;;;25.30;99.90;;;;;;5050502;28;20213;-77
2021/06/19 10:29:10;;;;;;;10.50;9.45;;;25.20;99.90;;;;;;5059041;28;20693;-77
2021/06/19 10:31:42;;;;;;;11.70;10.50;;;25.30;99.90;;;;;;5052693;28;20984;-77
2021/06/19 10:34:25;;;;;;;10.95;9.40;;;25.60;99.90;;;;;;5047417;28;20638;-77
2021/06/19 10:36:53;;;;;;;10.93;9.73;;;25.60;99.90;;;;;;5041457;28;20302;-77
2021/06/19 10:39:34;;;;;;;13.77;10.23;;;25.80;99.90;;;;;;5037261;28;20217;-76
2021/06/19 10:42:04;;;;;;;11.25;10.15;;;25.70;99.90;;;;;;5037962;28;20189;-77
2021/06/19 10:44:51;;;;;;;12.60;9.85;;;26.10;99.90;;;;;;5041561;28;20549;-77
2021/06/19 10:47:19;;;;;;;12.48;9.80;;;26.20;99.90;;;;;;5054448;28;20262;-77
2021/06/19 10:49:47;;;;;;;9.40;8.48;;;26.60;99.90;;;;;;5045462;28;20205;-77
2021/06/19 10:52:28;;;;;;;10.35;8.50;;;26.80;99.90;;;;;;5048472;28;20205;-76
2021/06/19 10:55:27;;;;;;;9.30;7.63;;;26.50;99.90;;;;;;5038711;28;20241;-77
2021/06/19 10:58:05;;;;;;;9.82;8.38;;;26.50;99.90;;;;;;4987768;28;20218;-77
2021/06/19 11:00:39;;;;;;;9.07;8.18;;;26.70;99.90;;;;;;5046521;28;20200;-77
2021/06/19 11:03:07;;;;;;;9.05;7.55;;;26.80;99.90;;;;;;5053816;28;20243;-76
2021/06/19 11:05:56;;;;;;;8.00;7.20;;;27.20;99.90;;;;;;5053830;28;20200;-76
2021/06/19 11:08:23;;;;;;;8.75;7.85;;;27.60;99.90;;;;;;5045749;28;20192;-78
2021/06/19 11:10:53;;;;;;;9.52;7.47;;;28.10;99.90;;;;;;5051322;28;20189;-77
2021/06/19 11:13:49;;;;;;;9.10;7.00;;;28.30;99.90;;;;;;5054421;28;20250;-77
2021/06/19 11:16:49;;;;;;;8.38;7.25;;;28.10;99.90;;;;;;5061776;28;20280;-78
2021/06/19 11:19:35;;;;;;;8.32;6.90;;;27.90;99.90;;;;;;5049474;28;20200;-77
2021/06/19 11:22:32;;;;;;;9.20;7.25;;;27.80;99.90;;;;;;5053618;28;20259;-78
2021/06/19 11:25:40;;;;;;;8.93;7.07;;;28.20;99.90;;;;;;5058294;28;20254;-77
2021/06/19 11:28:09;;;;;;;9.55;6.90;;;28.80;99.90;;;;;;5023205;28;20694;-77
2021/06/19 11:30:52;;;;;;;12.80;7.28;;;28.80;99.90;;;;;;5051562;28;20798;-77
2021/06/19 11:33:34;;;;;;;8.90;6.57;;;28.10;99.90;;;;;;5055866;28;20222;-77
2021/06/19 11:36:35;;;;;;;7.50;6.65;;;28.30;99.90;;;;;;5061600;28;20224;-78
2021/06/19 11:39:10;;;;;;;8.18;7.28;;;27.80;99.90;;;;;;5045657;28;20215;-78
2021/06/19 11:41:40;;;;;;;9.88;7.35;;;27.60;99.90;;;;;;5040260;28;20200;-78
2021/06/19 11:44:13;;;;;;;10.77;7.65;;;27.90;99.90;;;;;;5039959;28;20533;-80
2021/06/19 11:46:51;;;;;;;8.90;6.82;;;27.70;99.90;;;;;;5045684;28;20306;-78
2021/06/19 11:49:18;;;;;;;9.13;7.63;;;27.60;99.90;;;;;;5052091;28;20247;-79
2021/06/19 11:51:49;;;;;;;9.48;7.32;;;27.10;99.90;;;;;;5052286;28;20677;-79
2021/06/19 11:54:17;;;;;;;7.93;7.13;;;26.70;99.90;;;;;;5053645;28;20299;-77
2021/06/19 11:56:45;;;;;;;7.80;6.80;;;26.30;99.90;;;;;;5048106;28;20255;-78
2021/06/19 11:59:13;;;;;;;10.40;8.25;;;26.00;99.90;;;;;;5050706;28;20664;-78
2021/06/19 12:01:43;;;;;;;10.32;9.32;;;25.90;99.90;;;;;;5057396;28;20223;-77
2021/06/19 12:04:13;;;;;;;11.73;9.77;;;25.70;99.90;;;;;;5056001;28;20260;-78
2021/06/19 12:06:41;;;;;;;10.95;9.27;;;25.50;99.90;;;;;;5056106;28;20216;-78
2021/06/19 12:09:09;;;;;;;9.07;8.18;;;25.30;99.90;;;;;;5041181;28;20228;-79
2021/06/19 12:11:37;;;;;;;10.13;9.05;;;25.20;99.90;;;;;;5048900;28;20219;-78
2021/06/19 12:14:16;;;;;;;9.15;7.53;;;25.50;99.90;;;;;;5036551;28;20258;-79
2021/06/19 12:16:45;;;;;;;7.50;6.70;;;26.00;99.90;;;;;;5052760;28;20196;-77
2021/06/19 12:19:12;;;;;;;7.10;6.47;;;26.30;99.90;;;;;;5044644;28;20189;-77
2021/06/19 12:21:41;;;;;;;9.13;7.72;;;26.50;99.90;;;;;;5052254;28;20201;-78
2021/06/19 12:24:25;;;;;;;8.40;7.30;;;26.80;99.90;;;;;;5039215;28;20209;-79
2021/06/19 12:27:11;;;;;;;11.63;9.85;;;26.80;99.90;;;;;;5051847;28;20192;-78
2021/06/19 12:29:41;;;;;;;10.30;7.57;;;27.00;99.90;;;;;;5036606;28;20201;-78
2021/06/19 12:32:31;;;;;;;8.45;7.32;;;26.90;99.90;;;;;;5042676;28;20212;-78
2021/06/19 12:35:03;;;;;;;8.60;6.47;;;26.70;99.90;;;;;;5047993;28;20203;-79
2021/06/19 12:37:32;;;;;;;10.13;8.77;;;26.50;99.90;;;;;;5038479;28;20687;-78
2021/06/19 12:40:01;;;;;;;9.90;8.23;;;26.40;99.90;;;;;;5046602;28;20276;-78
2021/06/19 12:42:37;;;;;;;29.75;7.70;;;26.30;99.90;;;;;;5052018;28;20243;-81
2021/06/19 12:45:05;;;;;;;8.73;7.72;;;26.10;99.90;;;;;;5040347;28;20205;-76
2021/06/19 12:47:38;;;;;;;8.18;7.38;;;25.80;99.90;;;;;;5046944;28;20287;-77
2021/06/19 12:50:07;;;;;;;9.73;7.80;;;25.80;99.90;;;;;;5049222;28;20262;-80
2021/06/19 12:52:34;;;;;;;10.10;7.70;;;26.20;99.90;;;;;;5042074;28;20224;-78